CPZ9 weather

Toronto/City Centre Seaplane Base
Toronto, Ontario, Canada

Public forecast

Using degrees Celsius for public forecast. Weather courtesy of forecast.io.

Closest aviation weather report (METAR) to Toronto/City Centre Seaplane Base

Closest report is Billy Bishop Toronto City Centre Airport, 0.3 nm (0.6 km) SSW. Retrieved 2020/05/26 21:00 UTC (3 minutes ago):

CYTZ 262100Z AUTO 07006KT 9SM CLR 23/18 A3003 RMK SLP172 DENSITY ALT 1100FT

Closest aviation forecast (TAF) to Toronto/City Centre Seaplane Base

Closest forecast is Billy Bishop Toronto City Centre Airport, 0.3 nm (0.6 km) SSW. Retrieved 2020/05/26 20:43 UTC (20 minutes ago):

TAF CYTZ 261940Z 2620/2720 08007KT P6SM FEW060 FM270800 05005KT P6SM SCT240 TEMPO 2708/2712 2SM BR FM271600 18008KT P6SM BKN200 RMK FCST BASED ON AUTO OBS NXT FCST BY 270200Z